createdAt,value
2023-03-01T00:00:18.365Z,1025.92
2023-03-01T00:01:18.292Z,1025.91
2023-03-01T00:02:18.370Z,1025.94
2023-03-01T00:03:18.303Z,1025.92
2023-03-01T00:04:18.357Z,1025.91
2023-03-01T00:05:18.259Z,1025.91
2023-03-01T00:06:18.283Z,1025.92
2023-03-01T00:07:18.293Z,1025.90
2023-03-01T00:08:18.263Z,1025.89
2023-03-01T00:09:18.222Z,1025.89
2023-03-01T00:10:18.227Z,1025.87
2023-03-01T00:11:18.280Z,1025.90
2023-03-01T00:12:18.232Z,1025.90
2023-03-01T00:13:18.204Z,1025.92
2023-03-01T00:14:18.244Z,1025.91
2023-03-01T00:15:18.161Z,1025.90
2023-03-01T00:16:18.231Z,1025.91
2023-03-01T00:17:18.179Z,1025.91
2023-03-01T00:18:18.150Z,1025.91
2023-03-01T00:19:18.139Z,1025.91
2023-03-01T00:20:18.115Z,1025.87
2023-03-01T00:21:18.132Z,1025.85
2023-03-01T00:22:18.113Z,1025.86
2023-03-01T00:23:18.117Z,1025.85
2023-03-01T00:24:18.106Z,1025.85
2023-03-01T00:25:18.065Z,1025.83
2023-03-01T00:26:18.066Z,1025.81
2023-03-01T00:27:18.089Z,1025.79
2023-03-01T00:28:18.102Z,1025.78
2023-03-01T00:29:18.042Z,1025.77
2023-03-01T00:30:18.028Z,1025.76
2023-03-01T00:31:18.013Z,1025.75
2023-03-01T00:32:18.055Z,1025.75
2023-03-01T00:33:18.004Z,1025.73
2023-03-01T00:34:18.024Z,1025.72
2023-03-01T00:35:18.005Z,1025.72
2023-03-01T00:36:17.974Z,1025.70
2023-03-01T00:37:17.957Z,1025.71
2023-03-01T00:38:17.964Z,1025.71
2023-03-01T00:39:17.933Z,1025.71
2023-03-01T00:40:17.959Z,1025.73
2023-03-01T00:41:17.931Z,1025.74
2023-03-01T00:42:17.908Z,1025.73
2023-03-01T00:43:17.880Z,1025.73
2023-03-01T00:44:17.937Z,1025.73
2023-03-01T00:45:17.875Z,1025.71
2023-03-01T00:46:18.008Z,1025.70
2023-03-01T00:47:17.877Z,1025.69
2023-03-01T00:48:17.863Z,1025.69
2023-03-01T00:49:17.858Z,1025.70
2023-03-01T00:50:17.870Z,1025.71
2023-03-01T00:51:17.843Z,1025.71
2023-03-01T00:52:17.828Z,1025.69
2023-03-01T00:53:17.796Z,1025.70
2023-03-01T00:54:17.856Z,1025.69
2023-03-01T00:55:17.796Z,1025.69
2023-03-01T00:56:17.800Z,1025.68
2023-03-01T00:57:17.762Z,1025.68
2023-03-01T00:58:17.746Z,1025.68
2023-03-01T00:59:17.753Z,1025.67
2023-03-01T01:00:17.772Z,1025.66
2023-03-01T01:01:17.786Z,1025.63
2023-03-01T01:02:17.780Z,1025.62
2023-03-01T01:03:17.697Z,1025.62
2023-03-01T01:04:17.700Z,1025.60
2023-03-01T01:05:17.699Z,1025.58
2023-03-01T01:06:17.674Z,1025.53
2023-03-01T01:07:17.697Z,1025.52
2023-03-01T01:08:17.675Z,1025.52
2023-03-01T01:09:17.650Z,1025.52
2023-03-01T01:10:17.647Z,1025.51
2023-03-01T01:11:17.635Z,1025.51
2023-03-01T01:12:17.626Z,1025.50
2023-03-01T01:13:17.662Z,1025.49
2023-03-01T01:14:17.625Z,1025.49
2023-03-01T01:15:17.612Z,1025.50
2023-03-01T01:16:17.620Z,1025.49
2023-03-01T01:17:17.595Z,1025.49
2023-03-01T01:18:17.556Z,1025.48
2023-03-01T01:19:17.530Z,1025.47
2023-03-01T01:20:17.565Z,1025.45
2023-03-01T01:21:17.591Z,1025.41
2023-03-01T01:22:17.520Z,1025.37
2023-03-01T01:23:17.490Z,1025.36
2023-03-01T01:24:17.504Z,1025.36
2023-03-01T01:25:17.481Z,1025.37
2023-03-01T01:26:17.491Z,1025.36
2023-03-01T01:27:17.465Z,1025.34
2023-03-01T01:28:17.468Z,1025.34
2023-03-01T01:29:17.439Z,1025.32
2023-03-01T01:30:17.429Z,1025.33
2023-03-01T01:31:17.482Z,1025.33
2023-03-01T01:32:17.518Z,1025.32
2023-03-01T01:33:17.414Z,1025.32
2023-03-01T01:34:17.390Z,1025.33
2023-03-01T01:35:17.383Z,1025.34
2023-03-01T01:36:17.372Z,1025.35
2023-03-01T01:37:17.347Z,1025.36
2023-03-01T01:38:17.362Z,1025.36
2023-03-01T01:39:17.391Z,1025.36
2023-03-01T01:40:17.375Z,1025.34
2023-03-01T01:41:17.358Z,1025.33
2023-03-01T01:42:17.322Z,1025.33
2023-03-01T01:43:17.344Z,1025.33
2023-03-01T01:44:17.287Z,1025.32
2023-03-01T01:45:17.281Z,1025.32
2023-03-01T01:46:17.348Z,1025.30
2023-03-01T01:47:17.262Z,1025.27
2023-03-01T01:48:17.287Z,1025.26
2023-03-01T01:49:17.304Z,1025.24
2023-03-01T01:50:17.227Z,1025.23
2023-03-01T01:51:17.221Z,1025.21
2023-03-01T01:52:17.202Z,1025.20
2023-03-01T01:53:17.226Z,1025.18
2023-03-01T01:54:17.208Z,1025.17
2023-03-01T01:55:17.205Z,1025.17
2023-03-01T01:56:17.231Z,1025.17
2023-03-01T01:57:17.222Z,1025.17
2023-03-01T01:58:17.158Z,1025.16
2023-03-01T01:59:17.145Z,1025.15
2023-03-01T02:00:17.113Z,1025.16
2023-03-01T02:01:17.120Z,1025.17
2023-03-01T02:02:17.161Z,1025.18
2023-03-01T02:03:17.188Z,1025.19
2023-03-01T02:04:17.077Z,1025.18
2023-03-01T02:05:17.099Z,1025.16
2023-03-01T02:06:17.061Z,1025.13
2023-03-01T02:07:17.071Z,1025.10
2023-03-01T02:08:17.046Z,1025.07
2023-03-01T02:09:17.039Z,1025.06
2023-03-01T02:10:17.030Z,1025.03
2023-03-01T02:11:17.058Z,1025.02
2023-03-01T02:12:17.052Z,1025.02
2023-03-01T02:13:17.022Z,1025.03
2023-03-01T02:14:16.982Z,1025.04
2023-03-01T02:15:16.987Z,1025.04
2023-03-01T02:16:16.986Z,1025.05
2023-03-01T02:17:17.011Z,1025.06
2023-03-01T02:18:16.972Z,1025.07
2023-03-01T02:19:16.952Z,1025.08
2023-03-01T02:20:16.933Z,1025.07
2023-03-01T02:21:16.979Z,1025.05
2023-03-01T02:22:16.973Z,1025.03
2023-03-01T02:23:16.904Z,1025.01
2023-03-01T02:24:18.692Z,1025.00
2023-03-01T02:25:16.900Z,1024.99
2023-03-01T02:26:16.895Z,1024.98
2023-03-01T02:27:16.870Z,1024.98
2023-03-01T02:28:16.870Z,1024.98
2023-03-01T02:29:16.849Z,1024.99
2023-03-01T02:30:16.820Z,1024.99
2023-03-01T02:31:16.892Z,1024.99
2023-03-01T02:32:16.921Z,1024.98
2023-03-01T02:33:16.796Z,1024.97
2023-03-01T02:34:16.781Z,1024.96
2023-03-01T02:35:16.824Z,1024.96
2023-03-01T02:36:16.793Z,1024.95
2023-03-01T02:37:16.744Z,1024.95
2023-03-01T02:38:16.753Z,1024.95
2023-03-01T02:39:16.765Z,1024.95
2023-03-01T02:40:16.752Z,1024.94
2023-03-01T02:41:16.724Z,1024.93
2023-03-01T02:42:16.710Z,1024.90
2023-03-01T02:43:16.721Z,1024.90
2023-03-01T02:44:16.755Z,1024.92
2023-03-01T02:45:16.692Z,1024.95
2023-03-01T02:46:16.694Z,1024.98
2023-03-01T02:47:16.675Z,1024.99
2023-03-01T02:48:16.660Z,1024.99
2023-03-01T02:49:16.661Z,1024.98
2023-03-01T02:50:16.627Z,1024.98
2023-03-01T02:51:16.622Z,1024.97
2023-03-01T02:52:16.688Z,1024.96
2023-03-01T02:53:16.636Z,1024.96
2023-03-01T02:54:16.592Z,1024.97
2023-03-01T02:55:16.635Z,1024.98
2023-03-01T02:56:16.562Z,1024.98
2023-03-01T02:57:16.593Z,1024.98
2023-03-01T02:58:16.551Z,1024.99
2023-03-01T02:59:16.571Z,1025.00
2023-03-01T03:00:16.524Z,1025.00
2023-03-01T03:01:16.574Z,1025.00
2023-03-01T03:02:16.543Z,1024.98
2023-03-01T03:03:16.519Z,1024.97
2023-03-01T03:04:16.526Z,1024.97
2023-03-01T03:05:16.496Z,1024.99
2023-03-01T03:06:16.456Z,1025.00
2023-03-01T03:07:16.470Z,1024.99
2023-03-01T03:08:16.521Z,1024.99
2023-03-01T03:09:16.879Z,1025.00
2023-03-01T03:10:16.430Z,1024.99
2023-03-01T03:11:16.476Z,1024.99
2023-03-01T03:12:16.407Z,1024.98
2023-03-01T03:13:16.449Z,1024.96
2023-03-01T03:14:16.391Z,1024.96
2023-03-01T03:15:16.379Z,1024.94
2023-03-01T03:16:16.404Z,1024.92
2023-03-01T03:17:16.377Z,1024.92
2023-03-01T03:18:16.417Z,1024.90
2023-03-01T03:19:16.371Z,1024.88
2023-03-01T03:20:16.343Z,1024.87
2023-03-01T03:21:16.369Z,1024.86
2023-03-01T03:22:16.303Z,1024.86
2023-03-01T03:23:16.324Z,1024.85
2023-03-01T03:24:16.300Z,1024.84
2023-03-01T03:25:16.294Z,1024.82
2023-03-01T03:26:16.358Z,1024.82
2023-03-01T03:27:16.276Z,1024.82
2023-03-01T03:28:16.280Z,1024.81
2023-03-01T03:29:16.245Z,1024.82
2023-03-01T03:30:16.245Z,1024.82
2023-03-01T03:31:16.302Z,1024.83
2023-03-01T03:32:16.227Z,1024.83
2023-03-01T03:33:16.220Z,1024.81
2023-03-01T03:34:16.189Z,1024.79
2023-03-01T03:35:16.200Z,1024.76
2023-03-01T03:36:16.164Z,1024.73
2023-03-01T03:37:16.152Z,1024.70
2023-03-01T03:38:16.135Z,1024.67
2023-03-01T03:39:16.160Z,1024.66
2023-03-01T03:40:16.180Z,1024.67
2023-03-01T03:41:16.138Z,1024.67
2023-03-01T03:42:16.122Z,1024.70
2023-03-01T03:43:16.138Z,1024.70
2023-03-01T03:44:16.105Z,1024.71
2023-03-01T03:45:16.078Z,1024.71
2023-03-01T03:46:16.077Z,1024.70
2023-03-01T03:47:16.076Z,1024.70
2023-03-01T03:48:16.103Z,1024.69
2023-03-01T03:49:16.045Z,1024.69
2023-03-01T03:50:16.041Z,1024.68
2023-03-01T03:51:16.073Z,1024.67
2023-03-01T03:52:16.000Z,1024.67
2023-03-01T03:53:15.999Z,1024.66
2023-03-01T03:54:16.023Z,1024.63
2023-03-01T03:55:15.991Z,1024.61
2023-03-01T03:56:15.960Z,1024.60
2023-03-01T03:57:15.995Z,1024.59
2023-03-01T03:58:15.962Z,1024.60
2023-03-01T03:59:15.981Z,1024.60
2023-03-01T04:00:15.914Z,1024.59
2023-03-01T04:01:15.998Z,1024.58
2023-03-01T04:02:15.978Z,1024.57
2023-03-01T04:03:15.903Z,1024.55
2023-03-01T04:04:15.914Z,1024.54
2023-03-01T04:05:15.890Z,1024.53
2023-03-01T04:06:15.897Z,1024.53
2023-03-01T04:07:15.886Z,1024.55
2023-03-01T04:08:15.850Z,1024.56
2023-03-01T04:09:15.841Z,1024.58
2023-03-01T04:10:15.852Z,1024.59
2023-03-01T04:11:15.843Z,1024.59
2023-03-01T04:12:15.819Z,1024.59
2023-03-01T04:13:15.804Z,1024.56
2023-03-01T04:14:15.813Z,1024.55
2023-03-01T04:15:15.804Z,1024.51
2023-03-01T04:16:15.836Z,1024.48
2023-03-01T04:17:15.765Z,1024.46
2023-03-01T04:18:15.780Z,1024.46
2023-03-01T04:19:15.755Z,1024.45
2023-03-01T04:20:15.755Z,1024.45
2023-03-01T04:21:15.762Z,1024.46
2023-03-01T04:22:15.710Z,1024.46
2023-03-01T04:23:15.747Z,1024.44
2023-03-01T04:24:15.736Z,1024.44
2023-03-01T04:25:15.705Z,1024.43
2023-03-01T04:26:15.658Z,1024.40
2023-03-01T04:27:15.734Z,1024.40
2023-03-01T04:28:15.669Z,1024.40
2023-03-01T04:29:15.662Z,1024.38
2023-03-01T04:30:15.660Z,1024.39
2023-03-01T04:31:15.689Z,1024.38
2023-03-01T04:32:15.747Z,1024.37
2023-03-01T04:33:15.684Z,1024.36
2023-03-01T04:34:15.637Z,1024.34
2023-03-01T04:35:15.587Z,1024.34
2023-03-01T04:36:15.629Z,1024.34
2023-03-01T04:37:15.605Z,1024.34
2023-03-01T04:38:15.587Z,1024.33
2023-03-01T04:39:15.545Z,1024.35
2023-03-01T04:40:15.524Z,1024.33
2023-03-01T04:41:15.537Z,1024.32
2023-03-01T04:42:15.523Z,1024.32
2023-03-01T04:43:15.682Z,1024.33
2023-03-01T04:44:15.500Z,1024.35
2023-03-01T04:45:15.509Z,1024.35
2023-03-01T04:46:15.835Z,1024.36
2023-03-01T04:47:15.479Z,1024.34
2023-03-01T04:48:15.464Z,1024.33
2023-03-01T04:49:15.462Z,1024.31
2023-03-01T04:50:15.454Z,1024.31
2023-03-01T04:51:15.464Z,1024.31
2023-03-01T04:52:15.416Z,1024.29
2023-03-01T04:53:15.414Z,1024.28
2023-03-01T04:54:15.441Z,1024.26
2023-03-01T04:55:15.408Z,1024.26
2023-03-01T04:56:15.395Z,1024.24
2023-03-01T04:57:15.412Z,1024.24
2023-03-01T04:58:15.390Z,1024.23
2023-03-01T04:59:15.409Z,1024.25
2023-03-01T05:00:15.334Z,1024.25
2023-03-01T05:01:15.365Z,1024.25
2023-03-01T05:02:15.304Z,1024.24
2023-03-01T05:03:15.390Z,1024.25
2023-03-01T05:04:15.377Z,1024.25
2023-03-01T05:05:15.305Z,1024.27
2023-03-01T05:06:15.287Z,1024.28
2023-03-01T05:07:15.287Z,1024.29
2023-03-01T05:08:15.271Z,1024.31
2023-03-01T05:09:15.277Z,1024.31
2023-03-01T05:10:15.254Z,1024.31
2023-03-01T05:11:15.240Z,1024.32
2023-03-01T05:12:15.219Z,1024.31
2023-03-01T05:13:15.295Z,1024.31
2023-03-01T05:14:15.197Z,1024.31
2023-03-01T05:15:15.245Z,1024.33
2023-03-01T05:16:15.293Z,1024.33
2023-03-01T05:17:15.174Z,1024.32
2023-03-01T05:18:15.170Z,1024.32
2023-03-01T05:19:15.209Z,1024.30
2023-03-01T05:20:15.165Z,1024.29
2023-03-01T05:21:15.146Z,1024.28
2023-03-01T05:22:15.762Z,1024.28
2023-03-01T05:23:15.120Z,1024.26
2023-03-01T05:24:15.099Z,1024.26
2023-03-01T05:25:15.109Z,1024.26
2023-03-01T05:26:30.505Z,1024.27
2023-03-01T05:27:15.877Z,1024.27
2023-03-01T05:28:15.057Z,1024.27
2023-03-01T05:29:15.087Z,1024.28
2023-03-01T05:30:15.108Z,1024.29
2023-03-01T05:31:15.064Z,1024.28
2023-03-01T05:32:15.074Z,1024.28
2023-03-01T05:33:15.031Z,1024.28
2023-03-01T05:34:14.986Z,1024.30
2023-03-01T05:35:15.011Z,1024.30
2023-03-01T05:36:15.065Z,1024.30
2023-03-01T05:37:15.018Z,1024.30
2023-03-01T05:38:14.962Z,1024.29
2023-03-01T05:39:14.961Z,1024.29
2023-03-01T05:40:14.936Z,1024.29
2023-03-01T05:41:14.928Z,1024.28
2023-03-01T05:42:14.891Z,1024.28
2023-03-01T05:43:14.908Z,1024.29
2023-03-01T05:44:14.848Z,1024.29
2023-03-01T05:45:14.875Z,1024.29
2023-03-01T05:46:14.893Z,1024.31
2023-03-01T05:47:14.850Z,1024.31
2023-03-01T05:48:14.831Z,1024.31
2023-03-01T05:49:14.836Z,1024.31
2023-03-01T05:50:14.772Z,1024.29
2023-03-01T05:51:14.798Z,1024.28
2023-03-01T05:52:14.821Z,1024.26
2023-03-01T05:53:14.785Z,1024.25
2023-03-01T05:54:14.746Z,1024.24
2023-03-01T05:55:14.743Z,1024.21
2023-03-01T05:56:14.746Z,1024.19
2023-03-01T05:57:14.729Z,1024.18
2023-03-01T05:58:14.729Z,1024.18
2023-03-01T05:59:14.744Z,1024.17
2023-03-01T06:00:14.695Z,1024.17
2023-03-01T06:01:14.768Z,1024.15
2023-03-01T06:02:14.708Z,1024.13
2023-03-01T06:03:14.678Z,1024.12
2023-03-01T06:04:14.695Z,1024.11
2023-03-01T06:05:14.736Z,1024.10
2023-03-01T06:06:14.639Z,1024.10
2023-03-01T06:07:14.645Z,1024.09
2023-03-01T06:08:14.689Z,1024.10
2023-03-01T06:09:14.620Z,1024.09
2023-03-01T06:10:14.671Z,1024.09
2023-03-01T06:11:14.596Z,1024.08
2023-03-01T06:12:14.576Z,1024.07
2023-03-01T06:13:14.585Z,1024.06
2023-03-01T06:14:14.578Z,1024.05
2023-03-01T06:15:14.624Z,1024.05
2023-03-01T06:16:14.614Z,1024.06
2023-03-01T06:17:14.528Z,1024.06
2023-03-01T06:18:14.547Z,1024.06
2023-03-01T06:19:14.550Z,1024.06
2023-03-01T06:20:14.518Z,1024.07
2023-03-01T06:21:14.496Z,1024.07
2023-03-01T06:22:14.545Z,1024.07
2023-03-01T06:23:14.505Z,1024.08
2023-03-01T06:24:14.499Z,1024.09
2023-03-01T06:25:14.469Z,1024.10
2023-03-01T06:26:14.433Z,1024.09
2023-03-01T06:27:14.451Z,1024.07
2023-03-01T06:28:14.434Z,1024.05
2023-03-01T06:29:14.433Z,1024.03
2023-03-01T06:30:14.425Z,1024.02
2023-03-01T06:31:14.515Z,1024.01
2023-03-01T06:32:14.464Z,1024.01
2023-03-01T06:33:14.383Z,1024.02
2023-03-01T06:34:14.396Z,1024.02
2023-03-01T06:35:14.341Z,1024.03
2023-03-01T06:36:14.366Z,1024.03
2023-03-01T06:37:14.343Z,1024.02
2023-03-01T06:38:14.376Z,1024.02
2023-03-01T06:39:14.310Z,1024.01
2023-03-01T06:40:15.415Z,1024.02
2023-03-01T06:41:14.351Z,1024.02
2023-03-01T06:42:14.337Z,1024.05
2023-03-01T06:43:14.289Z,1024.06
2023-03-01T06:44:14.266Z,1024.09
2023-03-01T06:45:14.279Z,1024.12
2023-03-01T06:46:14.286Z,1024.13
2023-03-01T06:47:14.269Z,1024.15
2023-03-01T06:48:14.300Z,1024.16
2023-03-01T06:49:14.208Z,1024.17
2023-03-01T06:50:14.250Z,1024.19
2023-03-01T06:51:14.202Z,1024.19
2023-03-01T06:52:14.194Z,1024.19
2023-03-01T06:53:14.211Z,1024.18
2023-03-01T06:54:14.229Z,1024.16
2023-03-01T06:55:14.179Z,1024.16
2023-03-01T06:56:14.172Z,1024.15
2023-03-01T06:57:14.303Z,1024.17
2023-03-01T06:58:14.138Z,1024.17
2023-03-01T06:59:14.134Z,1024.16
2023-03-01T07:00:14.137Z,1024.16
2023-03-01T07:01:14.130Z,1024.17
2023-03-01T07:02:14.116Z,1024.19
2023-03-01T07:03:14.169Z,1024.20
2023-03-01T07:04:14.102Z,1024.20
2023-03-01T07:05:14.071Z,1024.20
2023-03-01T07:06:14.039Z,1024.21
2023-03-01T07:07:14.047Z,1024.22
2023-03-01T07:08:14.044Z,1024.21
2023-03-01T07:09:13.999Z,1024.21
2023-03-01T07:10:14.017Z,1024.21
2023-03-01T07:11:14.082Z,1024.21
2023-03-01T07:12:14.015Z,1024.20
2023-03-01T07:13:13.979Z,1024.20
2023-03-01T07:14:14.015Z,1024.21
2023-03-01T07:15:13.955Z,1024.20
2023-03-01T07:16:14.019Z,1024.18
2023-03-01T07:17:13.940Z,1024.17
2023-03-01T07:18:13.927Z,1024.16
2023-03-01T07:19:13.925Z,1024.17
2023-03-01T07:20:13.957Z,1024.16
2023-03-01T07:21:13.930Z,1024.16
2023-03-01T07:22:13.900Z,1024.15
2023-03-01T07:23:13.884Z,1024.14
2023-03-01T07:24:13.866Z,1024.13
2023-03-01T07:25:13.837Z,1024.12
2023-03-01T07:26:13.845Z,1024.11
2023-03-01T07:27:13.841Z,1024.11
2023-03-01T07:28:13.882Z,1024.10
2023-03-01T07:29:13.852Z,1024.10
2023-03-01T07:30:14.290Z,1024.09
2023-03-01T07:31:13.806Z,1024.08
2023-03-01T07:32:13.961Z,1024.06
2023-03-01T07:33:13.841Z,1024.06
2023-03-01T07:34:13.862Z,1024.04
2023-03-01T07:35:13.816Z,1024.02
2023-03-01T07:36:13.811Z,1024.00
2023-03-01T07:37:13.778Z,1023.99
2023-03-01T07:38:13.778Z,1023.98
2023-03-01T07:39:13.732Z,1023.99
2023-03-01T07:40:13.781Z,1024.00
2023-03-01T07:41:13.710Z,1024.01
2023-03-01T07:42:13.694Z,1024.01
2023-03-01T07:43:13.674Z,1024.00
2023-03-01T07:44:13.748Z,1023.98
2023-03-01T07:45:13.694Z,1023.98
2023-03-01T07:46:13.668Z,1023.99
2023-03-01T07:47:13.637Z,1024.00
2023-03-01T07:48:13.711Z,1024.01
2023-03-01T07:49:13.615Z,1024.02
2023-03-01T07:50:13.640Z,1024.03
2023-03-01T07:51:13.624Z,1024.04
2023-03-01T07:52:13.605Z,1024.03
2023-03-01T07:53:13.579Z,1024.02
2023-03-01T07:54:13.616Z,1024.02
2023-03-01T07:55:13.547Z,1024.03
2023-03-01T07:56:13.564Z,1024.03
2023-03-01T07:57:13.572Z,1024.04
2023-03-01T07:58:13.527Z,1024.04
2023-03-01T07:59:13.515Z,1024.04
2023-03-01T08:00:13.542Z,1024.02
2023-03-01T08:01:13.505Z,1024.01
2023-03-01T08:02:13.527Z,1024.02
2023-03-01T08:03:13.575Z,1024.01
2023-03-01T08:04:13.495Z,1024.03
2023-03-01T08:05:13.460Z,1024.06
2023-03-01T08:06:13.453Z,1024.06
2023-03-01T08:07:13.482Z,1024.07
2023-03-01T08:08:13.442Z,1024.07
2023-03-01T08:09:13.430Z,1024.07
2023-03-01T08:10:13.474Z,1024.05
2023-03-01T08:11:13.504Z,1024.05
2023-03-01T08:12:13.385Z,1024.05
2023-03-01T08:13:13.434Z,1024.06
2023-03-01T08:14:13.402Z,1024.03
2023-03-01T08:15:13.397Z,1024.03
2023-03-01T08:16:13.486Z,1024.04
2023-03-01T08:17:13.333Z,1024.05
2023-03-01T08:18:13.519Z,1024.05
2023-03-01T08:19:13.370Z,1024.04
2023-03-01T08:20:13.341Z,1024.05
2023-03-01T08:21:13.341Z,1024.03
2023-03-01T08:22:13.305Z,1024.03
2023-03-01T08:23:13.272Z,1024.02
2023-03-01T08:24:13.262Z,1024.02
2023-03-01T08:25:13.286Z,1024.02
2023-03-01T08:26:13.275Z,1024.00
2023-03-01T08:27:13.264Z,1023.98
2023-03-01T08:28:13.243Z,1023.98
2023-03-01T08:29:13.244Z,1024.00
2023-03-01T08:30:13.257Z,1023.99
2023-03-01T08:31:13.189Z,1023.99
2023-03-01T08:32:13.357Z,1023.97
2023-03-01T08:33:13.264Z,1023.97
2023-03-01T08:34:13.211Z,1023.96
2023-03-01T08:35:13.148Z,1023.94
2023-03-01T08:36:13.183Z,1023.95
2023-03-01T08:37:13.182Z,1023.93
2023-03-01T08:38:13.150Z,1023.93
2023-03-01T08:39:13.151Z,1023.93
2023-03-01T08:40:13.102Z,1023.92
2023-03-01T08:41:13.109Z,1023.93
2023-03-01T08:42:13.114Z,1023.93
2023-03-01T08:43:13.099Z,1023.94
2023-03-01T08:44:13.104Z,1023.94
2023-03-01T08:45:13.051Z,1023.93
2023-03-01T08:46:13.107Z,1023.92
2023-03-01T08:47:13.065Z,1023.93
2023-03-01T08:48:13.042Z,1023.92
2023-03-01T08:49:13.049Z,1023.91
2023-03-01T08:50:13.018Z,1023.90
2023-03-01T08:51:12.991Z,1023.90
2023-03-01T08:52:13.009Z,1023.87
2023-03-01T08:53:13.061Z,1023.86
2023-03-01T08:54:12.991Z,1023.84
2023-03-01T08:55:12.955Z,1023.82
2023-03-01T08:56:12.983Z,1023.81
2023-03-01T08:57:12.944Z,1023.81
2023-03-01T08:58:12.935Z,1023.80
2023-03-01T08:59:12.936Z,1023.80
2023-03-01T09:00:12.950Z,1023.81
2023-03-01T09:01:12.924Z,1023.79
2023-03-01T09:02:12.904Z,1023.79
2023-03-01T09:03:12.901Z,1023.78
2023-03-01T09:04:13.887Z,1023.77
2023-03-01T09:05:12.860Z,1023.75
2023-03-01T09:06:12.858Z,1023.75
2023-03-01T09:07:12.831Z,1023.74
2023-03-01T09:08:12.937Z,1023.73
2023-03-01T09:09:12.818Z,1023.70
2023-03-01T09:10:12.825Z,1023.69
2023-03-01T09:11:12.812Z,1023.69
2023-03-01T09:12:12.805Z,1023.70
2023-03-01T09:13:12.828Z,1023.71
2023-03-01T09:14:12.812Z,1023.72
2023-03-01T09:15:12.851Z,1023.72
2023-03-01T09:16:12.806Z,1023.74
2023-03-01T09:17:12.835Z,1023.74
2023-03-01T09:18:12.766Z,1023.73
2023-03-01T09:19:12.734Z,1023.76
2023-03-01T09:20:12.708Z,1023.75
2023-03-01T09:21:12.724Z,1023.74
2023-03-01T09:22:12.720Z,1023.74
2023-03-01T09:23:12.671Z,1023.74
2023-03-01T09:24:12.778Z,1023.71
2023-03-01T09:25:12.656Z,1023.70
2023-03-01T09:26:12.644Z,1023.69
2023-03-01T09:27:12.642Z,1023.68
2023-03-01T09:28:27.635Z,1023.66
2023-03-01T09:29:12.627Z,1023.65
2023-03-01T09:30:12.613Z,1023.66
2023-03-01T09:31:12.658Z,1023.65
2023-03-01T09:32:12.699Z,1023.65
2023-03-01T09:33:12.608Z,1023.65
2023-03-01T09:34:12.570Z,1023.63
2023-03-01T09:35:12.576Z,1023.63
2023-03-01T09:36:12.587Z,1023.60
2023-03-01T09:37:12.559Z,1023.60
2023-03-01T09:38:12.530Z,1023.60
2023-03-01T09:39:12.537Z,1023.56
2023-03-01T09:40:12.518Z,1023.53
2023-03-01T09:41:12.524Z,1023.50
2023-03-01T09:42:12.513Z,1023.51
2023-03-01T09:43:12.493Z,1023.49
2023-03-01T09:44:12.474Z,1023.49
2023-03-01T09:45:12.489Z,1023.50
2023-03-01T09:46:12.510Z,1023.50
2023-03-01T09:47:12.464Z,1023.51
2023-03-01T09:48:12.473Z,1023.53
2023-03-01T09:49:12.426Z,1023.54
2023-03-01T09:50:12.416Z,1023.54
2023-03-01T09:51:12.390Z,1023.55
2023-03-01T09:52:12.451Z,1023.51
2023-03-01T09:53:12.383Z,1023.49
2023-03-01T09:54:12.395Z,1023.49
2023-03-01T09:55:12.349Z,1023.46
2023-03-01T09:56:12.380Z,1023.46
2023-03-01T09:57:12.353Z,1023.44
2023-03-01T09:58:12.324Z,1023.41
2023-03-01T09:59:12.337Z,1023.40
2023-03-01T10:00:12.313Z,1023.43
2023-03-01T10:01:12.315Z,1023.43
2023-03-01T10:02:12.280Z,1023.43
2023-03-01T10:03:12.293Z,1023.41
2023-03-01T10:04:12.412Z,1023.40
2023-03-01T10:05:12.398Z,1023.42
2023-03-01T10:06:14.940Z,1023.40
2023-03-01T10:07:12.238Z,1023.43
2023-03-01T10:08:12.244Z,1023.43
2023-03-01T10:09:12.237Z,1023.41
2023-03-01T10:10:12.241Z,1023.41
2023-03-01T10:11:12.212Z,1023.39
2023-03-01T10:12:12.220Z,1023.36
2023-03-01T10:13:12.219Z,1023.34
2023-03-01T10:14:12.174Z,1023.29
2023-03-01T10:15:12.174Z,1023.29
2023-03-01T10:16:12.187Z,1023.30
2023-03-01T10:17:12.134Z,1023.30
2023-03-01T10:18:12.230Z,1023.28
2023-03-01T10:19:12.113Z,1023.28
2023-03-01T10:20:12.097Z,1023.28
2023-03-01T10:21:12.076Z,1023.24
2023-03-01T10:22:12.076Z,1023.25
2023-03-01T10:23:12.159Z,1023.22
2023-03-01T10:24:12.060Z,1023.22
2023-03-01T10:25:12.052Z,1023.24
2023-03-01T10:26:12.049Z,1023.24
2023-03-01T10:27:12.092Z,1023.20
2023-03-01T10:28:12.004Z,1023.16
2023-03-01T10:29:12.037Z,1023.13
2023-03-01T10:30:12.003Z,1023.12
2023-03-01T10:31:12.007Z,1023.12
2023-03-01T10:32:11.999Z,1023.06
2023-03-01T10:33:11.993Z,1023.00
2023-03-01T10:34:11.962Z,1023.00
2023-03-01T10:35:11.966Z,1022.98
2023-03-01T10:36:11.950Z,1022.96
2023-03-01T10:37:11.915Z,1023.01
2023-03-01T10:38:11.923Z,1023.01
2023-03-01T10:39:11.943Z,1023.01
2023-03-01T10:40:11.939Z,1023.01
2023-03-01T10:41:11.876Z,1023.03
2023-03-01T10:42:11.844Z,1023.04
2023-03-01T10:43:11.916Z,1023.05
2023-03-01T10:44:11.899Z,1023.03
2023-03-01T10:45:11.873Z,1023.03
2023-03-01T10:46:11.888Z,1023.03
2023-03-01T10:47:11.845Z,1023.02
2023-03-01T10:48:11.810Z,1023.04
2023-03-01T10:49:11.822Z,1023.02
2023-03-01T10:50:11.781Z,1022.97
2023-03-01T10:51:11.789Z,1022.93
2023-03-01T10:52:11.800Z,1022.99
2023-03-01T10:53:11.767Z,1022.93
2023-03-01T10:54:11.763Z,1022.95
2023-03-01T10:55:11.777Z,1022.91
2023-03-01T10:56:11.712Z,1022.93
2023-03-01T10:57:11.730Z,1022.91
2023-03-01T10:58:11.708Z,1022.88
2023-03-01T10:59:11.699Z,1022.86
2023-03-01T11:00:11.680Z,1022.81
2023-03-01T11:01:11.706Z,1022.81
2023-03-01T11:02:23.590Z,1022.81
2023-03-01T11:03:11.701Z,1022.76
2023-03-01T11:04:11.614Z,1022.82
2023-03-01T11:05:11.622Z,1022.82
2023-03-01T11:06:11.618Z,1022.87
2023-03-01T11:07:11.612Z,1022.87
2023-03-01T11:08:11.588Z,1022.85
2023-03-01T11:09:11.642Z,1022.81
2023-03-01T11:10:11.570Z,1022.77
2023-03-01T11:11:11.559Z,1022.76
2023-03-01T11:12:11.541Z,1022.75
2023-03-01T11:13:11.546Z,1022.75
2023-03-01T11:14:24.970Z,1022.75
2023-03-01T11:15:11.562Z,1022.78
2023-03-01T11:16:11.553Z,1022.76
2023-03-01T11:17:11.519Z,1022.74
2023-03-01T11:18:14.311Z,1022.71
2023-03-01T11:19:11.493Z,1022.69
2023-03-01T11:20:11.493Z,1022.65
2023-03-01T11:21:11.464Z,1022.66
2023-03-01T11:22:11.518Z,1022.67
2023-03-01T11:23:11.438Z,1022.68
2023-03-01T11:24:11.466Z,1022.71
2023-03-01T11:25:11.463Z,1022.73
2023-03-01T11:26:12.815Z,1022.75
2023-03-01T11:27:11.407Z,1022.71
2023-03-01T11:28:11.414Z,1022.72
2023-03-01T11:29:11.390Z,1022.69
2023-03-01T11:30:11.401Z,1022.69
2023-03-01T11:31:11.397Z,1022.69
2023-03-01T11:32:11.487Z,1022.71
2023-03-01T11:33:11.440Z,1022.67
2023-03-01T11:34:11.331Z,1022.67
2023-03-01T11:35:11.342Z,1022.66
2023-03-01T11:36:11.333Z,1022.67
2023-03-01T11:37:11.290Z,1022.68
2023-03-01T11:38:11.411Z,1022.70
2023-03-01T11:39:11.278Z,1022.71
2023-03-01T11:40:11.310Z,1022.68
2023-03-01T11:41:11.251Z,1022.70
2023-03-01T11:42:18.651Z,1022.71
2023-03-01T11:43:11.428Z,1022.72
2023-03-01T11:44:11.223Z,1022.72
2023-03-01T11:45:11.218Z,1022.73
2023-03-01T11:46:12.790Z,1022.73
2023-03-01T11:47:11.327Z,1022.73
2023-03-01T11:48:11.250Z,1022.76
2023-03-01T11:49:11.194Z,1022.75
2023-03-01T11:50:11.164Z,1022.69
2023-03-01T11:51:11.166Z,1022.72
2023-03-01T11:52:11.193Z,1022.71
2023-03-01T11:53:11.160Z,1022.72
2023-03-01T11:54:11.130Z,1022.73
2023-03-01T11:55:11.121Z,1022.69
2023-03-01T11:56:11.189Z,1022.68
2023-03-01T11:57:11.167Z,1022.68
2023-03-01T11:58:11.070Z,1022.67
2023-03-01T11:59:11.066Z,1022.63
2023-03-01T12:00:11.084Z,1022.66
2023-03-01T12:01:11.105Z,1022.65
2023-03-01T12:02:11.993Z,1022.64
2023-03-01T12:03:11.051Z,1022.62
2023-03-01T12:04:11.023Z,1022.59
2023-03-01T12:05:11.060Z,1022.61